createdAt,value
2018-01-30T00:00:41.220Z,3.65
2018-01-30T00:01:43.688Z,2.90
2018-01-30T00:02:46.164Z,2.97
2018-01-30T00:03:48.652Z,3.35
2018-01-30T00:04:51.121Z,2.80
2018-01-30T00:05:53.609Z,2.90
2018-01-30T00:06:56.068Z,3.45
2018-01-30T00:07:58.603Z,2.78
2018-01-30T00:09:01.077Z,3.67
2018-01-30T00:10:03.545Z,2.53
2018-01-30T00:11:06.021Z,3.78
2018-01-30T00:12:08.482Z,3.10
2018-01-30T00:13:10.957Z,3.62
2018-01-30T00:14:13.429Z,3.70
2018-01-30T00:15:15.891Z,2.90
2018-01-30T00:16:18.368Z,3.25
2018-01-30T00:17:20.899Z,3.12
2018-01-30T00:18:23.381Z,3.08
2018-01-30T00:19:25.840Z,3.75
2018-01-30T00:20:28.317Z,2.55
2018-01-30T00:21:30.795Z,4.30
2018-01-30T00:22:33.273Z,3.03
2018-01-30T00:23:35.750Z,3.20
2018-01-30T00:24:38.220Z,3.03
2018-01-30T00:25:40.692Z,2.75
2018-01-30T00:26:43.173Z,2.65
2018-01-30T00:27:45.632Z,3.45
2018-01-30T00:28:48.100Z,2.53
2018-01-30T00:29:50.577Z,3.45
2018-01-30T00:30:53.043Z,2.87
2018-01-30T00:31:55.502Z,2.90
2018-01-30T00:32:57.977Z,4.22
2018-01-30T00:34:00.502Z,2.70
2018-01-30T00:35:02.955Z,2.65
2018-01-30T00:36:05.436Z,2.17
2018-01-30T00:37:07.890Z,2.65
2018-01-30T00:38:10.346Z,2.75
2018-01-30T00:39:12.808Z,2.58
2018-01-30T00:40:15.271Z,2.80
2018-01-30T00:41:17.731Z,3.00
2018-01-30T00:42:20.201Z,2.90
2018-01-30T00:43:22.664Z,3.62
2018-01-30T00:44:25.144Z,2.70
2018-01-30T00:45:27.598Z,3.05
2018-01-30T00:46:30.069Z,3.25
2018-01-30T00:47:32.536Z,3.67
2018-01-30T00:48:35.007Z,3.75
2018-01-30T00:49:37.487Z,3.40
2018-01-30T00:50:39.946Z,3.62
2018-01-30T00:51:42.420Z,3.20
2018-01-30T00:52:44.930Z,3.60
2018-01-30T00:53:47.405Z,4.25
2018-01-30T00:54:49.885Z,3.20
2018-01-30T00:55:52.360Z,3.95
2018-01-30T00:56:54.818Z,3.20
2018-01-30T00:57:57.274Z,3.37
2018-01-30T00:58:59.734Z,3.60
2018-01-30T01:00:02.210Z,3.90
2018-01-30T01:01:04.689Z,3.35
2018-01-30T01:02:07.150Z,3.22
2018-01-30T01:03:09.621Z,2.80
2018-01-30T01:04:12.080Z,2.85
2018-01-30T01:05:14.542Z,3.22
2018-01-30T01:06:17.023Z,2.87
2018-01-30T01:07:19.496Z,3.15
2018-01-30T01:08:21.969Z,2.62
2018-01-30T01:09:24.434Z,3.50
2018-01-30T01:10:26.905Z,2.80
2018-01-30T01:11:29.380Z,3.10
2018-01-30T01:12:31.849Z,2.85
2018-01-30T01:13:34.365Z,2.95
2018-01-30T01:14:36.844Z,3.00
2018-01-30T01:15:39.329Z,3.50
2018-01-30T01:16:41.794Z,3.60
2018-01-30T01:17:44.251Z,3.22
2018-01-30T01:18:46.735Z,2.62
2018-01-30T01:19:49.209Z,2.83
2018-01-30T01:20:51.684Z,3.05
2018-01-30T01:21:54.146Z,3.10
2018-01-30T01:22:56.621Z,3.50
2018-01-30T01:23:59.087Z,3.70
2018-01-30T01:25:01.540Z,3.15
2018-01-30T01:26:04.009Z,3.40
2018-01-30T01:27:06.485Z,3.40
2018-01-30T01:28:08.943Z,3.67
2018-01-30T01:29:11.417Z,4.12
2018-01-30T01:30:13.897Z,3.55
2018-01-30T01:31:16.375Z,4.10
2018-01-30T01:32:18.845Z,3.58
2018-01-30T01:33:21.303Z,3.75
2018-01-30T01:34:23.797Z,4.62
2018-01-30T01:35:26.250Z,4.70
2018-01-30T01:36:28.764Z,4.20
2018-01-30T01:37:31.226Z,4.72
2018-01-30T01:38:33.754Z,3.75
2018-01-30T01:39:36.236Z,4.10
2018-01-30T01:40:38.692Z,3.62
2018-01-30T01:41:41.147Z,3.33
2018-01-30T01:42:43.606Z,3.72
2018-01-30T01:43:46.090Z,4.20
2018-01-30T01:44:48.548Z,3.70
2018-01-30T01:45:51.007Z,3.90
2018-01-30T01:46:53.623Z,4.22
2018-01-30T01:47:56.089Z,6.00
2018-01-30T01:48:58.565Z,3.95
2018-01-30T01:50:01.023Z,4.20
2018-01-30T01:51:03.488Z,4.25
2018-01-30T01:52:05.957Z,4.60
2018-01-30T01:53:08.428Z,4.40
2018-01-30T01:54:10.938Z,5.00
2018-01-30T01:55:13.394Z,4.68
2018-01-30T01:56:15.855Z,5.28
2018-01-30T01:57:18.322Z,4.90
2018-01-30T01:58:20.793Z,4.32
2018-01-30T01:59:23.260Z,4.28
2018-01-30T02:00:25.733Z,4.72
2018-01-30T02:01:28.202Z,5.00
2018-01-30T02:02:30.791Z,5.15
2018-01-30T02:03:33.424Z,5.20
2018-01-30T02:04:35.895Z,5.18
2018-01-30T02:05:38.369Z,6.03
2018-01-30T02:06:40.845Z,5.45
2018-01-30T02:07:43.322Z,5.22
2018-01-30T02:08:45.797Z,5.37
2018-01-30T02:09:48.270Z,5.72
2018-01-30T02:10:50.733Z,5.85
2018-01-30T02:11:53.187Z,5.12
2018-01-30T02:12:55.643Z,5.25
2018-01-30T02:13:58.116Z,5.78
2018-01-30T02:15:00.583Z,6.70
2018-01-30T02:16:03.061Z,8.60
2018-01-30T02:17:05.540Z,7.62
2018-01-30T02:18:08.006Z,6.80
2018-01-30T02:19:10.471Z,8.38
2018-01-30T02:20:12.935Z,7.28
2018-01-30T02:21:15.391Z,7.40
2018-01-30T02:22:17.854Z,7.75
2018-01-30T02:23:20.332Z,7.43
2018-01-30T02:24:22.808Z,8.65
2018-01-30T02:25:25.293Z,6.90
2018-01-30T02:26:27.768Z,8.52
2018-01-30T02:27:30.244Z,8.30
2018-01-30T02:28:32.717Z,6.62
2018-01-30T02:29:35.188Z,7.12
2018-01-30T02:30:37.646Z,7.70
2018-01-30T02:31:40.123Z,8.68
2018-01-30T02:32:42.590Z,10.30
2018-01-30T02:33:45.050Z,10.85
2018-01-30T02:34:47.541Z,11.00
2018-01-30T02:35:50.020Z,9.82
2018-01-30T02:36:52.477Z,9.85
2018-01-30T02:37:54.942Z,10.75
2018-01-30T02:38:57.421Z,11.90
2018-01-30T02:39:59.905Z,11.80
2018-01-30T02:41:02.389Z,13.32
2018-01-30T02:42:04.856Z,12.70
2018-01-30T02:43:07.360Z,12.02
2018-01-30T02:44:09.844Z,14.15
2018-01-30T02:45:12.307Z,12.95
2018-01-30T02:46:14.790Z,14.82
2018-01-30T02:47:17.282Z,13.52
2018-01-30T02:48:19.764Z,13.25
2018-01-30T02:49:22.234Z,12.40
2018-01-30T02:50:24.702Z,14.68
2018-01-30T02:51:27.171Z,12.07
2018-01-30T02:52:29.653Z,14.75
2018-01-30T02:53:32.139Z,14.93
2018-01-30T02:54:34.617Z,14.95
2018-01-30T02:55:37.083Z,14.30
2018-01-30T02:56:39.569Z,13.95
2018-01-30T02:57:42.053Z,14.15
2018-01-30T02:58:44.522Z,14.73
2018-01-30T02:59:46.992Z,13.90
2018-01-30T03:00:49.459Z,12.85
2018-01-30T03:01:51.928Z,12.52
2018-01-30T03:02:54.408Z,11.60
2018-01-30T03:03:56.874Z,12.55
2018-01-30T03:04:59.348Z,12.63
2018-01-30T03:06:01.829Z,12.85
2018-01-30T03:07:04.294Z,13.40
2018-01-30T03:08:06.807Z,12.13
2018-01-30T03:09:09.300Z,17.30
2018-01-30T03:10:11.767Z,18.20
2018-01-30T03:11:14.331Z,15.05
2018-01-30T03:12:16.811Z,16.92
2018-01-30T03:13:19.289Z,15.57
2018-01-30T03:14:21.764Z,15.60
2018-01-30T03:15:24.265Z,16.02
2018-01-30T03:16:26.748Z,17.55
2018-01-30T03:17:29.229Z,18.42
2018-01-30T03:18:31.694Z,16.58
2018-01-30T03:19:34.187Z,15.50
2018-01-30T03:20:36.668Z,15.38
2018-01-30T03:21:39.130Z,19.30
2018-01-30T03:22:41.594Z,18.20
2018-01-30T03:23:44.071Z,17.20
2018-01-30T03:24:46.547Z,17.45
2018-01-30T03:25:49.018Z,18.15
2018-01-30T03:26:51.493Z,15.55
2018-01-30T03:27:53.982Z,16.77
2018-01-30T03:28:56.450Z,17.80
2018-01-30T03:29:58.915Z,16.48
2018-01-30T03:31:01.371Z,14.70
2018-01-30T03:32:03.844Z,15.60
2018-01-30T03:33:06.345Z,16.27
2018-01-30T03:34:08.811Z,16.20
2018-01-30T03:35:11.310Z,14.80
2018-01-30T03:36:13.789Z,16.48
2018-01-30T03:37:16.264Z,15.80
2018-01-30T03:38:18.849Z,15.63
2018-01-30T03:39:21.315Z,15.85
2018-01-30T03:40:23.792Z,15.30
2018-01-30T03:41:26.273Z,15.38
2018-01-30T03:42:28.738Z,15.35
2018-01-30T03:43:31.202Z,15.02
2018-01-30T03:44:33.662Z,16.90
2018-01-30T03:45:36.126Z,19.23
2018-01-30T03:46:38.605Z,18.02
2018-01-30T03:47:41.088Z,17.58
2018-01-30T03:48:43.565Z,16.73
2018-01-30T03:49:46.046Z,17.37
2018-01-30T03:50:48.511Z,18.50
2018-01-30T03:51:50.985Z,19.08
2018-01-30T03:52:53.451Z,19.95
2018-01-30T03:53:55.933Z,19.33
2018-01-30T03:54:58.416Z,18.08
2018-01-30T03:56:00.913Z,19.48
2018-01-30T03:57:03.374Z,18.70
2018-01-30T03:58:05.849Z,19.05
2018-01-30T03:59:08.331Z,17.80
2018-01-30T04:00:10.813Z,18.98
2018-01-30T04:01:13.274Z,18.87
2018-01-30T04:02:15.759Z,20.60
2018-01-30T04:03:18.221Z,20.33
2018-01-30T04:04:20.686Z,18.55
2018-01-30T04:05:23.155Z,20.40
2018-01-30T04:06:25.632Z,20.58
2018-01-30T04:07:28.098Z,18.33
2018-01-30T04:08:30.563Z,20.27
2018-01-30T04:09:33.110Z,19.50
2018-01-30T04:10:35.580Z,20.00
2018-01-30T04:11:38.075Z,18.42
2018-01-30T04:12:40.557Z,17.60
2018-01-30T04:13:43.038Z,19.08
2018-01-30T04:14:45.502Z,18.50
2018-01-30T04:15:47.966Z,18.15
2018-01-30T04:16:50.440Z,19.48
2018-01-30T04:17:52.903Z,18.60
2018-01-30T04:18:55.380Z,17.10
2018-01-30T04:19:57.874Z,18.55
2018-01-30T04:21:00.345Z,19.08
2018-01-30T04:22:02.826Z,17.85
2018-01-30T04:23:05.294Z,17.37
2018-01-30T04:24:07.777Z,16.73
2018-01-30T04:25:10.257Z,17.35
2018-01-30T04:26:12.733Z,17.23
2018-01-30T04:27:15.200Z,17.67
2018-01-30T04:28:17.672Z,17.48
2018-01-30T04:29:20.142Z,18.10
2018-01-30T04:30:22.606Z,16.90
2018-01-30T04:31:25.066Z,18.33
2018-01-30T04:32:27.525Z,17.45
2018-01-30T04:33:30.000Z,18.27
2018-01-30T04:34:32.478Z,17.30
2018-01-30T04:35:34.964Z,17.60
2018-01-30T04:36:37.430Z,17.60
2018-01-30T04:37:39.913Z,17.55
2018-01-30T04:38:42.392Z,17.02
2018-01-30T04:39:44.862Z,17.05
2018-01-30T04:40:47.331Z,16.27
2018-01-30T04:41:49.824Z,15.60
2018-01-30T04:42:52.296Z,17.65
2018-01-30T04:43:54.760Z,17.50
2018-01-30T04:44:57.236Z,17.30
2018-01-30T04:45:59.721Z,18.30
2018-01-30T04:47:02.271Z,17.98
2018-01-30T04:48:04.754Z,17.45
2018-01-30T04:49:07.233Z,17.95
2018-01-30T04:50:09.698Z,18.25
2018-01-30T04:51:12.176Z,19.58
2018-01-30T04:52:14.652Z,20.08
2018-01-30T04:53:17.134Z,19.77
2018-01-30T04:54:19.609Z,22.70
2018-01-30T04:55:22.074Z,18.67
2018-01-30T04:56:24.535Z,21.08
2018-01-30T04:57:27.014Z,20.10
2018-01-30T04:58:29.496Z,20.98
2018-01-30T04:59:31.984Z,21.20
2018-01-30T05:00:34.469Z,22.02
2018-01-30T05:01:36.943Z,19.30
2018-01-30T05:02:39.410Z,20.85
2018-01-30T05:03:41.880Z,19.87
2018-01-30T05:04:44.360Z,18.90
2018-01-30T05:05:46.850Z,18.35
2018-01-30T05:06:49.313Z,18.00
2018-01-30T05:07:51.793Z,18.02
2018-01-30T05:08:54.259Z,20.35
2018-01-30T05:09:56.748Z,19.02
2018-01-30T05:10:59.214Z,20.23
2018-01-30T05:12:01.689Z,21.85
2018-01-30T05:13:04.198Z,23.20
2018-01-30T05:14:06.666Z,20.50
2018-01-30T05:15:09.130Z,20.48
2018-01-30T05:16:11.630Z,22.00
2018-01-30T05:17:14.108Z,24.00
2018-01-30T05:18:16.593Z,21.45
2018-01-30T05:19:19.062Z,23.00
2018-01-30T05:20:21.527Z,21.35
2018-01-30T05:21:23.995Z,21.50
2018-01-30T05:22:26.540Z,23.20
2018-01-30T05:23:29.010Z,24.08
2018-01-30T05:24:31.474Z,21.27
2018-01-30T05:25:33.956Z,23.65
2018-01-30T05:26:36.439Z,22.73
2018-01-30T05:27:38.924Z,22.27
2018-01-30T05:28:41.405Z,23.80
2018-01-30T05:29:43.967Z,25.30
2018-01-30T05:30:46.452Z,22.67
2018-01-30T05:31:48.914Z,24.52
2018-01-30T05:32:51.378Z,26.48
2018-01-30T05:33:53.857Z,26.67
2018-01-30T05:34:56.319Z,26.15
2018-01-30T05:35:58.793Z,27.62
2018-01-30T05:37:01.275Z,25.23
2018-01-30T05:38:03.739Z,25.65
2018-01-30T05:39:06.206Z,26.80
2018-01-30T05:40:08.712Z,28.23
2018-01-30T05:41:11.193Z,28.62
2018-01-30T05:42:13.684Z,28.55
2018-01-30T05:43:16.187Z,28.83
2018-01-30T05:44:18.664Z,28.20
2018-01-30T05:45:21.136Z,28.05
2018-01-30T05:46:23.611Z,29.30
2018-01-30T05:47:26.101Z,27.25
2018-01-30T05:48:28.629Z,27.50
2018-01-30T05:49:31.099Z,24.67
2018-01-30T05:50:33.562Z,27.92
2018-01-30T05:51:36.036Z,26.92
2018-01-30T05:52:38.518Z,25.67
2018-01-30T05:53:40.990Z,24.20
2018-01-30T05:54:43.487Z,26.42
2018-01-30T05:55:45.970Z,25.58
2018-01-30T05:56:48.430Z,26.25
2018-01-30T05:57:50.954Z,23.52
2018-01-30T05:58:53.440Z,23.12
2018-01-30T05:59:55.925Z,23.52
2018-01-30T06:00:58.413Z,24.98
2018-01-30T06:02:00.901Z,23.70
2018-01-30T06:03:03.367Z,23.40
2018-01-30T06:04:05.840Z,22.85
2018-01-30T06:05:08.364Z,23.05
2018-01-30T06:06:10.882Z,22.52
2018-01-30T06:07:13.326Z,23.45
2018-01-30T06:08:15.937Z,24.05
2018-01-30T06:09:18.396Z,22.10
2018-01-30T06:10:20.864Z,24.08
2018-01-30T06:11:23.340Z,22.87
2018-01-30T06:12:25.820Z,21.52
2018-01-30T06:13:28.297Z,23.08
2018-01-30T06:14:30.776Z,21.98
2018-01-30T06:15:33.243Z,23.17
2018-01-30T06:16:35.719Z,26.37
2018-01-30T06:17:38.186Z,22.67
2018-01-30T06:18:40.772Z,21.65
2018-01-30T06:19:43.388Z,21.50
2018-01-30T06:20:45.913Z,23.02
2018-01-30T06:21:48.349Z,24.05
2018-01-30T06:22:50.898Z,23.65
2018-01-30T06:23:53.866Z,21.90
2018-01-30T06:24:56.338Z,22.27
2018-01-30T06:25:58.829Z,22.08
2018-01-30T06:27:01.317Z,18.75
2018-01-30T06:28:03.800Z,21.00
2018-01-30T06:29:06.282Z,20.90
2018-01-30T06:30:08.762Z,20.67
2018-01-30T06:31:11.230Z,21.27
2018-01-30T06:32:13.754Z,22.85
2018-01-30T06:33:16.245Z,24.85
2018-01-30T06:34:18.724Z,22.33
2018-01-30T06:35:21.204Z,24.55
2018-01-30T06:36:23.686Z,22.87
2018-01-30T06:37:26.150Z,23.35
2018-01-30T06:38:28.643Z,22.58
2018-01-30T06:39:31.120Z,23.60
2018-01-30T06:40:33.618Z,23.48
2018-01-30T06:41:36.110Z,23.83
2018-01-30T06:42:38.640Z,23.83
2018-01-30T06:43:41.145Z,23.95
2018-01-30T06:44:43.625Z,25.15
2018-01-30T06:45:46.107Z,24.77
2018-01-30T06:46:48.594Z,24.63
2018-01-30T06:47:51.083Z,26.98
2018-01-30T06:48:53.576Z,25.27
2018-01-30T06:49:56.066Z,23.60
2018-01-30T06:50:58.546Z,25.00
2018-01-30T06:52:01.108Z,25.98
2018-01-30T06:53:03.589Z,27.02
2018-01-30T06:54:06.054Z,26.27
2018-01-30T06:55:08.532Z,27.65
2018-01-30T06:56:11.001Z,27.80
2018-01-30T06:57:13.466Z,27.95
2018-01-30T06:58:15.941Z,28.48
2018-01-30T06:59:18.428Z,29.23
2018-01-30T07:00:20.997Z,27.40
2018-01-30T07:01:23.473Z,26.12
2018-01-30T07:02:25.946Z,27.20
2018-01-30T07:03:28.424Z,27.80
2018-01-30T07:04:30.890Z,26.60
2018-01-30T07:05:33.373Z,27.73
2018-01-30T07:06:35.853Z,27.58
2018-01-30T07:07:38.329Z,27.00
2018-01-30T07:08:40.795Z,28.05
2018-01-30T07:09:43.276Z,28.62
2018-01-30T07:10:45.746Z,28.90
2018-01-30T07:11:48.315Z,30.35
2018-01-30T07:12:50.793Z,31.95
2018-01-30T07:13:53.258Z,29.83
2018-01-30T07:14:55.736Z,30.45
2018-01-30T07:15:58.214Z,30.85
2018-01-30T07:17:00.674Z,31.55
2018-01-30T07:18:03.142Z,30.75
2018-01-30T07:19:05.610Z,30.67
2018-01-30T07:20:08.100Z,30.35
2018-01-30T07:21:10.576Z,32.40
2018-01-30T07:22:13.115Z,31.80
2018-01-30T07:23:15.553Z,31.52
2018-01-30T07:24:18.036Z,31.10
2018-01-30T07:25:20.499Z,33.28
2018-01-30T07:26:22.976Z,29.58
2018-01-30T07:27:25.439Z,29.27
2018-01-30T07:28:27.929Z,24.77
2018-01-30T07:29:30.390Z,27.70
2018-01-30T07:30:32.854Z,29.40
2018-01-30T07:31:35.324Z,24.50
2018-01-30T07:32:37.805Z,24.45
2018-01-30T07:33:40.306Z,25.65
2018-01-30T07:34:42.780Z,27.35
2018-01-30T07:35:45.257Z,24.17
2018-01-30T07:36:47.741Z,25.80
2018-01-30T07:37:50.236Z,24.15
2018-01-30T07:38:52.704Z,23.08
2018-01-30T07:39:55.186Z,22.98
2018-01-30T07:40:57.697Z,24.40
2018-01-30T07:42:00.155Z,22.83
2018-01-30T07:43:02.657Z,24.33
2018-01-30T07:44:05.225Z,23.05
2018-01-30T07:45:07.711Z,23.75
2018-01-30T07:46:10.193Z,21.67
2018-01-30T07:47:12.659Z,25.00
2018-01-30T07:48:15.143Z,24.92
2018-01-30T07:49:17.607Z,22.75
2018-01-30T07:50:20.084Z,23.20
2018-01-30T07:51:22.561Z,21.33
2018-01-30T07:52:25.037Z,23.45
2018-01-30T07:53:27.520Z,20.20
2018-01-30T07:54:29.996Z,21.80
2018-01-30T07:55:32.462Z,20.67
2018-01-30T07:56:34.945Z,22.70
2018-01-30T07:57:37.426Z,20.35
2018-01-30T07:58:39.896Z,22.50
2018-01-30T07:59:42.367Z,22.25
2018-01-30T08:00:44.853Z,21.10
2018-01-30T08:01:47.340Z,19.48
2018-01-30T08:02:49.807Z,22.05
2018-01-30T08:03:52.326Z,19.62
2018-01-30T08:04:54.810Z,20.55
2018-01-30T08:05:57.291Z,21.23
2018-01-30T08:06:59.809Z,19.25
2018-01-30T08:08:02.297Z,20.55
2018-01-30T08:09:04.766Z,19.77
2018-01-30T08:10:07.263Z,21.02
2018-01-30T08:11:10.018Z,20.58
2018-01-30T08:12:12.510Z,20.70
2018-01-30T08:13:14.992Z,22.65
2018-01-30T08:14:17.469Z,24.12
2018-01-30T08:15:19.930Z,26.08
2018-01-30T08:16:22.407Z,25.45
2018-01-30T08:17:24.870Z,26.42
2018-01-30T08:18:27.335Z,26.20
2018-01-30T08:19:29.795Z,28.73
2018-01-30T08:20:32.304Z,27.35
2018-01-30T08:21:35.329Z,29.90
2018-01-30T08:22:38.049Z,25.70
2018-01-30T08:23:40.533Z,26.92
2018-01-30T08:24:43.011Z,22.85
2018-01-30T08:25:45.490Z,22.13
2018-01-30T08:26:47.973Z,22.30
2018-01-30T08:27:50.448Z,21.25
2018-01-30T08:28:52.918Z,21.35
2018-01-30T08:29:55.387Z,21.85
2018-01-30T08:30:57.867Z,21.20
2018-01-30T08:32:00.330Z,19.65
2018-01-30T08:33:02.795Z,20.37
2018-01-30T08:34:05.263Z,20.12
2018-01-30T08:35:07.735Z,18.23
2018-01-30T08:36:10.919Z,19.48
2018-01-30T08:37:13.401Z,19.70
2018-01-30T08:38:15.871Z,17.35
2018-01-30T08:39:18.352Z,19.45
2018-01-30T08:40:21.688Z,20.60
2018-01-30T08:41:24.155Z,21.50
2018-01-30T08:42:26.638Z,23.15
2018-01-30T08:43:29.115Z,19.50
2018-01-30T08:44:31.588Z,17.00
2018-01-30T08:45:34.056Z,19.52
2018-01-30T08:46:36.519Z,19.15
2018-01-30T08:47:39.001Z,17.90
2018-01-30T08:48:41.488Z,16.75
2018-01-30T08:49:43.963Z,18.48
2018-01-30T08:50:46.449Z,16.17
2018-01-30T08:51:48.919Z,15.45
2018-01-30T08:52:51.396Z,16.20
2018-01-30T08:53:53.870Z,16.05
2018-01-30T08:54:56.347Z,15.93
2018-01-30T08:55:59.145Z,16.98
2018-01-30T08:57:01.637Z,15.25
2018-01-30T08:58:04.108Z,14.25
2018-01-30T08:59:06.582Z,15.32
2018-01-30T09:00:09.047Z,15.82
2018-01-30T09:01:11.515Z,16.15
2018-01-30T09:02:13.997Z,14.95
2018-01-30T09:03:16.470Z,15.30
2018-01-30T09:04:18.939Z,14.23
2018-01-30T09:05:21.429Z,14.75
2018-01-30T09:06:23.913Z,14.00
2018-01-30T09:07:26.382Z,14.77
2018-01-30T09:08:28.850Z,14.63
2018-01-30T09:09:31.322Z,15.55
2018-01-30T09:10:33.803Z,14.95
2018-01-30T09:11:36.289Z,14.50
2018-01-30T09:12:38.764Z,14.90
2018-01-30T09:13:41.254Z,15.25
2018-01-30T09:14:44.161Z,14.40
2018-01-30T09:15:46.630Z,14.48
2018-01-30T09:16:49.195Z,14.85
2018-01-30T09:17:51.673Z,14.55
2018-01-30T09:18:54.299Z,15.88
2018-01-30T09:19:56.780Z,15.10
2018-01-30T09:20:59.242Z,15.52
2018-01-30T09:22:01.725Z,15.20
2018-01-30T09:23:04.186Z,15.90
2018-01-30T09:24:06.658Z,14.85
2018-01-30T09:25:09.133Z,17.87
2018-01-30T09:26:11.599Z,17.17
2018-01-30T09:27:14.081Z,16.48
2018-01-30T09:28:16.550Z,17.73
2018-01-30T09:29:19.025Z,16.30
2018-01-30T09:30:21.517Z,17.85
2018-01-30T09:31:24.002Z,16.80
2018-01-30T09:32:26.466Z,16.10
2018-01-30T09:33:28.969Z,18.08
2018-01-30T09:34:31.438Z,17.58
2018-01-30T09:35:33.921Z,16.70
2018-01-30T09:36:36.387Z,17.92
2018-01-30T09:37:38.867Z,17.55
2018-01-30T09:38:41.353Z,17.80
2018-01-30T09:39:43.818Z,18.75
2018-01-30T09:40:46.298Z,18.62
2018-01-30T09:41:48.764Z,18.60
2018-01-30T09:42:51.244Z,18.55
2018-01-30T09:43:53.725Z,20.15
2018-01-30T09:44:56.208Z,18.70
2018-01-30T09:45:58.675Z,18.62
2018-01-30T09:47:01.158Z,21.73
2018-01-30T09:48:03.634Z,19.95
2018-01-30T09:49:06.103Z,22.05
2018-01-30T09:50:08.589Z,21.35
2018-01-30T09:51:11.056Z,20.30
2018-01-30T09:52:13.545Z,20.80
2018-01-30T09:53:16.015Z,21.58
2018-01-30T09:54:18.507Z,21.55
2018-01-30T09:55:20.997Z,22.25
2018-01-30T09:56:23.485Z,20.65
2018-01-30T09:57:25.968Z,20.08
2018-01-30T09:58:28.439Z,21.00
2018-01-30T09:59:30.972Z,21.05
2018-01-30T10:00:33.512Z,20.10
2018-01-30T10:01:35.980Z,20.17
2018-01-30T10:02:38.548Z,20.75
2018-01-30T10:03:41.032Z,21.80
2018-01-30T10:04:43.518Z,20.27
2018-01-30T10:05:45.982Z,21.35
2018-01-30T10:06:48.470Z,21.80
2018-01-30T10:07:50.938Z,21.05
2018-01-30T10:08:53.424Z,21.70
2018-01-30T10:09:55.891Z,21.70
2018-01-30T10:10:58.409Z,21.12
2018-01-30T10:12:00.882Z,21.00
2018-01-30T10:13:03.368Z,21.52
2018-01-30T10:14:05.830Z,22.37
2018-01-30T10:15:08.345Z,21.55
2018-01-30T10:16:10.815Z,21.90
2018-01-30T10:17:13.279Z,21.45
2018-01-30T10:18:15.759Z,22.05
2018-01-30T10:19:18.236Z,22.00
2018-01-30T10:20:20.703Z,19.95
2018-01-30T10:21:23.166Z,21.17
2018-01-30T10:22:25.635Z,20.15
2018-01-30T10:23:28.094Z,19.48
2018-01-30T10:24:30.563Z,18.25
2018-01-30T10:25:33.049Z,18.25
2018-01-30T10:26:35.524Z,19.75
2018-01-30T10:27:37.990Z,17.62
2018-01-30T10:28:40.455Z,18.48
2018-01-30T10:29:42.938Z,17.30
2018-01-30T10:30:45.432Z,17.10
2018-01-30T10:31:47.896Z,17.92
2018-01-30T10:32:50.377Z,15.55
2018-01-30T10:33:52.852Z,18.00
2018-01-30T10:34:55.332Z,17.50
2018-01-30T10:35:57.795Z,17.15
2018-01-30T10:37:00.267Z,19.27
2018-01-30T10:38:02.752Z,17.05
2018-01-30T10:39:05.225Z,18.65
2018-01-30T10:40:07.699Z,16.08
2018-01-30T10:41:10.218Z,17.77
2018-01-30T10:42:12.715Z,24.40
2018-01-30T10:43:15.201Z,25.85
2018-01-30T10:44:17.688Z,21.87
2018-01-30T10:45:20.230Z,22.35
2018-01-30T10:46:22.710Z,23.42
2018-01-30T10:47:25.182Z,53.83
2018-01-30T10:48:27.709Z,16.73
2018-01-30T10:49:30.221Z,19.23
2018-01-30T10:50:32.696Z,24.92
2018-01-30T10:51:35.184Z,21.85
2018-01-30T10:52:37.697Z,17.15
2018-01-30T10:53:40.171Z,19.52
2018-01-30T10:54:42.643Z,14.93
2018-01-30T10:55:45.208Z,13.50
2018-01-30T10:56:47.687Z,14.50
2018-01-30T10:57:50.235Z,14.25
2018-01-30T10:58:52.702Z,13.13
2018-01-30T10:59:55.195Z,13.62
2018-01-30T11:00:57.687Z,15.25
2018-01-30T11:02:00.221Z,12.13
2018-01-30T11:03:02.708Z,13.48
2018-01-30T11:04:05.174Z,12.63
2018-01-30T11:05:07.713Z,13.15
2018-01-30T11:06:10.191Z,13.62
2018-01-30T11:07:12.680Z,15.32
2018-01-30T11:08:15.147Z,13.30
2018-01-30T11:09:17.623Z,14.85
2018-01-30T11:10:20.097Z,12.50
2018-01-30T11:11:22.564Z,13.55
2018-01-30T11:12:25.044Z,13.93
2018-01-30T11:13:27.536Z,12.80
2018-01-30T11:14:30.019Z,14.52
2018-01-30T11:15:32.501Z,13.62
2018-01-30T11:16:34.981Z,15.07
2018-01-30T11:17:37.446Z,18.55
2018-01-30T11:18:39.933Z,17.42
2018-01-30T11:19:42.404Z,15.63
2018-01-30T11:20:44.884Z,13.57
2018-01-30T11:21:47.354Z,13.98
2018-01-30T11:22:49.841Z,13.43
2018-01-30T11:23:52.364Z,14.32
2018-01-30T11:24:54.850Z,13.32
2018-01-30T11:25:57.330Z,13.55
2018-01-30T11:26:59.860Z,13.73
2018-01-30T11:28:02.341Z,15.90
2018-01-30T11:29:04.830Z,15.68
2018-01-30T11:30:07.320Z,14.93
2018-01-30T11:31:09.800Z,15.40
2018-01-30T11:32:12.308Z,15.27
2018-01-30T11:33:14.788Z,13.98
2018-01-30T11:34:17.296Z,13.55
2018-01-30T11:35:19.775Z,12.52
2018-01-30T11:36:22.248Z,12.45
2018-01-30T11:37:24.721Z,11.68
2018-01-30T11:38:27.200Z,11.45
2018-01-30T11:39:29.688Z,11.55
2018-01-30T11:40:32.177Z,12.05
2018-01-30T11:41:34.652Z,11.27
2018-01-30T11:42:37.132Z,12.18
2018-01-30T11:43:39.598Z,11.30
2018-01-30T11:44:42.066Z,13.77
2018-01-30T11:45:44.553Z,10.88
2018-01-30T11:46:47.022Z,9.70
2018-01-30T11:47:49.506Z,10.85
2018-01-30T11:48:51.975Z,10.18
2018-01-30T11:49:54.456Z,11.18
2018-01-30T11:50:57.279Z,11.23
2018-01-30T11:51:59.805Z,11.00
2018-01-30T11:53:02.301Z,10.45
2018-01-30T11:54:04.766Z,9.52
2018-01-30T11:55:07.249Z,11.12
2018-01-30T11:56:09.732Z,10.95
2018-01-30T11:57:12.218Z,12.55
2018-01-30T11:58:14.708Z,11.65
2018-01-30T11:59:17.180Z,10.88
2018-01-30T12:00:19.672Z,10.75
2018-01-30T12:01:22.153Z,9.63
2018-01-30T12:02:24.618Z,10.85
2018-01-30T12:03:27.098Z,10.20
2018-01-30T12:04:29.582Z,10.80
2018-01-30T12:05:32.059Z,10.85
2018-01-30T12:06:34.542Z,10.30
2018-01-30T12:07:37.285Z,10.18
2018-01-30T12:08:39.777Z,10.77
2018-01-30T12:09:42.268Z,10.02
2018-01-30T12:10:44.753Z,10.32
2018-01-30T12:11:47.219Z,10.20
2018-01-30T12:12:49.682Z,10.27
2018-01-30T12:13:52.160Z,9.50
2018-01-30T12:14:54.657Z,12.50
2018-01-30T12:15:57.125Z,9.85
2018-01-30T12:16:59.683Z,9.82
2018-01-30T12:18:02.181Z,10.40
2018-01-30T12:19:04.655Z,10.65
2018-01-30T12:20:07.169Z,9.32
2018-01-30T12:21:09.642Z,8.82
2018-01-30T12:22:12.117Z,8.95
2018-01-30T12:23:14.594Z,10.05
2018-01-30T12:24:17.058Z,10.25
2018-01-30T12:25:19.541Z,9.65
2018-01-30T12:26:22.009Z,9.50
2018-01-30T12:27:24.487Z,29.10
2018-01-30T12:28:26.994Z,14.18
2018-01-30T12:29:29.483Z,13.60
2018-01-30T12:30:31.950Z,10.50
2018-01-30T12:31:34.423Z,11.12
2018-01-30T12:32:36.909Z,14.18
2018-01-30T12:33:39.405Z,10.32
2018-01-30T12:34:41.894Z,8.35
2018-01-30T12:35:44.372Z,8.30
2018-01-30T12:36:46.842Z,8.43
2018-01-30T12:37:49.322Z,8.50
2018-01-30T12:38:51.791Z,9.25
2018-01-30T12:39:54.265Z,9.40
2018-01-30T12:40:56.748Z,9.48
2018-01-30T12:41:59.233Z,8.70
2018-01-30T12:43:01.712Z,8.60
2018-01-30T12:44:04.192Z,8.98
2018-01-30T12:45:06.685Z,9.23
2018-01-30T12:46:09.179Z,10.25
2018-01-30T12:47:11.688Z,9.52
2018-01-30T12:48:14.170Z,12.50
2018-01-30T12:49:16.642Z,12.85
2018-01-30T12:50:19.125Z,9.85
2018-01-30T12:51:21.614Z,10.55
2018-01-30T12:52:24.087Z,9.52
2018-01-30T12:53:26.575Z,9.60
2018-01-30T12:54:29.043Z,10.00
2018-01-30T12:55:31.791Z,9.52
2018-01-30T12:56:34.274Z,9.60
2018-01-30T12:57:36.739Z,8.90
2018-01-30T12:58:39.211Z,9.93
2018-01-30T12:59:41.748Z,11.12
2018-01-30T13:00:44.239Z,11.27
2018-01-30T13:01:46.715Z,10.63
2018-01-30T13:02:49.196Z,10.93
2018-01-30T13:03:51.673Z,10.93
2018-01-30T13:04:54.138Z,10.65
2018-01-30T13:05:56.617Z,11.00
2018-01-30T13:06:59.104Z,11.30
2018-01-30T13:08:01.596Z,11.55
2018-01-30T13:09:04.086Z,11.10
2018-01-30T13:10:06.563Z,12.48
2018-01-30T13:11:09.053Z,25.52
2018-01-30T13:12:11.547Z,17.87
2018-01-30T13:13:14.115Z,11.73
2018-01-30T13:14:16.594Z,14.45
2018-01-30T13:15:19.062Z,11.10
2018-01-30T13:16:21.556Z,10.88
2018-01-30T13:17:24.049Z,12.32
2018-01-30T13:18:26.521Z,15.43
2018-01-30T13:19:29.116Z,12.27
2018-01-30T13:20:31.597Z,9.05
2018-01-30T13:21:34.481Z,10.85
2018-01-30T13:22:36.947Z,10.45
2018-01-30T13:23:39.416Z,11.25
2018-01-30T13:24:41.886Z,9.48
2018-01-30T13:25:44.351Z,9.90
2018-01-30T13:26:46.837Z,10.45
2018-01-30T13:27:49.316Z,10.63
2018-01-30T13:28:51.794Z,9.82
2018-01-30T13:29:54.263Z,11.25
2018-01-30T13:30:56.765Z,10.52